Castle Hayne, North Carolina
Current Conditions -  °F | °C
As of 7:53 PM on Wednesday 22 Oct 2014 (Local Time) from KILM Reporting Station
Few Clouds Few Clouds  
Wind Chill: 59°   Ceiling: Unl
Heat Index: 59°   Visibility: 10mi
Dew Point: 47°   Wind: 3mph
Humidity: 64%   Direction: 300°WNW
Pressure: 29.98"   Gusts: NA
Location:  34.36°N, 77.9°W
Report Text: KILM 222353Z 30003KT 10SM FEW065 15/08 A2998 RMK AO2 SLP150 T01500083 10206 20144 53011
Loading
Personal Weather Stations






























Interactive Weather Map
Tropical Storm Tracking
New forecast layout! Learn more

10-Day Weather Forecast

Advertisements
Track Severe Weather on mobile